Time;durP1;ratioP1;P1;durP2;ratioP2;P2;SDS_P1;SDS_P2;PMS_P1;PMS_P2;Temp;Humidity;BMP_temperature;BMP_pressure;BME280_temperature;BME280_humidity;BME280_pressure;Samples;Min_cycle;Max_cycle;Signal;HPM_P1;HPM_P2
2022/05/02 00:00:49;;;;;;;3.30;1.70;;;23.00;39.60;;;;;;5005520;28;20045;-43
2022/05/02 00:03:15;;;;;;;2.45;1.40;;;23.00;39.70;;;;;;5005888;28;20594;-43
2022/05/02 00:05:41;;;;;;;2.13;1.38;;;23.00;39.60;;;;;;5005560;28;20479;-43
2022/05/02 00:08:07;;;;;;;2.08;1.23;;;23.00;39.60;;;;;;5006010;28;20040;-43
2022/05/02 00:10:33;;;;;;;2.20;1.30;;;22.90;39.60;;;;;;5006055;28;20063;-43
2022/05/02 00:13:00;;;;;;;2.35;1.30;;;22.90;39.60;;;;;;5005217;28;20030;-43
2022/05/02 00:15:27;;;;;;;2.58;1.45;;;22.90;39.60;;;;;;5005511;28;20030;-43
2022/05/02 00:18:01;;;;;;;3.40;1.30;;;23.00;39.60;;;;;;5012650;28;20096;-43
2022/05/02 00:20:36;;;;;;;2.08;1.15;;;22.90;39.60;;;;;;5014128;28;20730;-43
2022/05/02 00:23:07;;;;;;;1.95;1.27;;;22.90;39.60;;;;;;5013341;28;20029;-43
2022/05/02 00:25:33;;;;;;;2.33;1.38;;;22.90;39.70;;;;;;5013201;28;20024;-43
2022/05/02 00:28:00;;;;;;;2.67;1.55;;;22.90;39.60;;;;;;5011854;28;20108;-43
2022/05/02 00:30:27;;;;;;;2.63;1.60;;;22.90;39.60;;;;;;5005528;28;20137;-43
2022/05/02 00:32:53;;;;;;;2.88;1.60;;;22.90;39.60;;;;;;5005493;28;20544;-43
2022/05/02 00:35:19;;;;;;;2.22;1.38;;;22.90;39.60;;;;;;5005682;28;20026;-43
2022/05/02 00:37:46;;;;;;;3.63;1.92;;;22.90;39.60;;;;;;5005588;28;20040;-43
2022/05/02 00:40:13;;;;;;;2.40;1.35;;;22.90;39.70;;;;;;5005886;28;20543;-43
2022/05/02 00:42:41;;;;;;;2.30;1.42;;;22.90;39.70;;;;;;5005167;28;20026;-43
2022/05/02 00:45:08;;;;;;;3.10;1.98;;;22.90;39.70;;;;;;5005659;28;20040;-43
2022/05/02 00:47:35;;;;;;;2.20;1.30;;;22.90;39.70;;;;;;5005899;28;20048;-43
2022/05/02 00:50:03;;;;;;;2.53;1.52;;;22.90;39.70;;;;;;5005397;28;20081;-43
2022/05/02 00:52:29;;;;;;;2.63;1.60;;;22.90;39.70;;;;;;5005276;28;20038;-43
2022/05/02 00:54:55;;;;;;;4.28;1.80;;;22.90;39.70;;;;;;5005340;28;20076;-43
2022/05/02 00:57:21;;;;;;;2.20;1.27;;;22.90;39.70;;;;;;5004562;28;20026;-43
2022/05/02 00:59:46;;;;;;;2.47;1.63;;;22.80;39.60;;;;;;5005392;28;20506;-43
2022/05/02 01:02:14;;;;;;;2.67;1.70;;;22.90;39.70;;;;;;5004605;28;20109;-43
2022/05/02 01:04:41;;;;;;;3.00;1.75;;;22.80;39.60;;;;;;5005424;28;20108;-43
2022/05/02 01:07:10;;;;;;;2.10;1.35;;;22.80;39.50;;;;;;5009363;28;20628;-43
2022/05/02 01:09:42;;;;;;;2.90;1.70;;;22.80;39.70;;;;;;5009608;28;20057;-43
2022/05/02 01:12:14;;;;;;;2.17;1.35;;;22.80;39.60;;;;;;5009048;28;20032;-43
2022/05/02 01:14:42;;;;;;;2.10;1.40;;;22.80;39.60;;;;;;5009254;28;20026;-42
2022/05/02 01:17:11;;;;;;;1.95;1.30;;;22.80;39.60;;;;;;5009229;28;20026;-43
2022/05/02 01:19:37;;;;;;;2.67;1.77;;;22.80;39.60;;;;;;5008056;28;20488;-43
2022/05/02 01:22:05;;;;;;;2.40;1.40;;;22.80;39.60;;;;;;5008886;28;20628;-43
2022/05/02 01:24:39;;;;;;;2.75;1.60;;;22.80;39.70;;;;;;5009288;28;20477;-43
2022/05/02 01:27:06;;;;;;;2.42;1.38;;;22.80;39.70;;;;;;5009166;28;20053;-43
2022/05/02 01:29:33;;;;;;;2.53;1.38;;;22.80;39.70;;;;;;5008871;28;20432;-43
2022/05/02 01:32:01;;;;;;;2.05;1.35;;;22.80;39.70;;;;;;5008495;28;20105;-43
2022/05/02 01:34:26;;;;;;;2.20;1.40;;;22.80;39.70;;;;;;5008736;28;20029;-42
2022/05/02 01:36:52;;;;;;;2.30;1.48;;;22.80;39.70;;;;;;5008775;28;20029;-43
2022/05/02 01:39:18;;;;;;;2.42;1.48;;;22.80;39.70;;;;;;5008793;28;20065;-43
2022/05/02 01:41:44;;;;;;;2.28;1.40;;;22.80;39.70;;;;;;5008519;28;20061;-43
2022/05/02 01:44:10;;;;;;;2.40;1.48;;;22.80;39.70;;;;;;5008724;28;20038;-44
2022/05/02 01:46:37;;;;;;;2.78;1.67;;;22.80;39.70;;;;;;5008508;28;20084;-44
2022/05/02 01:49:03;;;;;;;2.25;1.33;;;22.80;39.70;;;;;;5008667;28;20041;-43
2022/05/02 01:51:29;;;;;;;2.60;1.45;;;22.80;39.60;;;;;;5008482;28;20021;-43
2022/05/02 01:53:54;;;;;;;2.38;1.50;;;22.80;39.70;;;;;;5007811;28;20399;-43
2022/05/02 01:56:20;;;;;;;2.30;1.35;;;22.70;39.70;;;;;;5007269;28;20260;-43
2022/05/02 01:58:46;;;;;;;2.20;1.40;;;22.80;39.70;;;;;;5008235;28;20034;-43
2022/05/02 02:01:11;;;;;;;2.30;1.23;;;22.70;39.70;;;;;;5007676;28;20694;-43
2022/05/02 02:03:37;;;;;;;2.13;1.10;;;22.70;39.80;;;;;;5008728;28;20064;-43
2022/05/02 02:06:04;;;;;;;2.38;1.50;;;22.80;39.80;;;;;;5007608;28;20211;-43
2022/05/02 02:08:32;;;;;;;2.53;1.50;;;22.70;39.70;;;;;;5008190;28;20057;-43
2022/05/02 02:11:00;;;;;;;2.15;1.25;;;22.70;39.80;;;;;;5008021;28;20033;-43
2022/05/02 02:13:26;;;;;;;2.13;1.40;;;22.70;39.70;;;;;;5008071;28;20034;-44
2022/05/02 02:15:52;;;;;;;2.08;1.27;;;22.70;39.80;;;;;;5008522;28;20022;-43
2022/05/02 02:18:17;;;;;;;2.03;1.20;;;22.70;39.70;;;;;;5008002;28;20561;-43
2022/05/02 02:20:47;;;;;;;2.08;1.27;;;22.70;39.70;;;;;;5006597;28;20117;-43
2022/05/02 02:23:14;;;;;;;2.10;1.40;;;22.70;39.70;;;;;;5007978;28;20060;-43
2022/05/02 02:25:40;;;;;;;2.50;1.50;;;22.70;39.80;;;;;;5007995;28;20111;-43
2022/05/02 02:28:06;;;;;;;2.22;1.45;;;22.70;39.70;;;;;;5007747;28;20037;-43
2022/05/02 02:30:32;;;;;;;2.17;1.27;;;22.70;39.80;;;;;;5008169;28;20022;-43
2022/05/02 02:32:59;;;;;;;2.03;1.20;;;22.70;39.70;;;;;;5007678;28;20508;-42
2022/05/02 02:35:25;;;;;;;2.92;1.83;;;22.70;39.70;;;;;;5007772;28;20585;-43
2022/05/02 02:37:52;;;;;;;2.30;1.50;;;22.70;39.70;;;;;;5007475;28;20394;-43
2022/05/02 02:40:18;;;;;;;2.03;1.25;;;22.70;39.80;;;;;;5007839;28;20034;-42
2022/05/02 02:42:44;;;;;;;2.25;1.40;;;22.70;39.80;;;;;;5007023;28;20029;-43
2022/05/02 02:45:10;;;;;;;2.53;1.48;;;22.70;39.80;;;;;;5007021;28;20129;-43
2022/05/02 02:47:36;;;;;;;2.20;1.25;;;22.70;39.80;;;;;;5007574;28;20131;-43
2022/05/02 02:50:02;;;;;;;2.17;1.40;;;22.70;39.80;;;;;;5007828;28;20410;-43
2022/05/02 02:52:28;;;;;;;2.33;1.30;;;22.70;39.80;;;;;;5006287;28;20434;-43
2022/05/02 02:54:54;;;;;;;2.42;1.52;;;22.70;39.80;;;;;;5006156;28;20032;-43
2022/05/02 02:57:20;;;;;;;2.42;1.48;;;22.70;39.80;;;;;;5006124;28;20394;-43
2022/05/02 02:59:45;;;;;;;2.90;1.38;;;22.70;39.80;;;;;;5007043;28;20105;-43
2022/05/02 03:02:11;;;;;;;2.67;1.52;;;22.70;39.80;;;;;;5007222;28;20066;-43
2022/05/02 03:07:26;;;;;;;2.70;1.58;;;22.70;39.80;;;;;;5006966;28;20033;-43
2022/05/02 03:12:27;;;;;;;2.20;1.40;;;22.70;39.80;;;;;;5099273;22;20085;-43
2022/05/02 03:14:53;;;;;;;2.78;1.30;;;22.60;39.80;;;;;;4987363;28;20038;-42
2022/05/02 03:17:18;;;;;;;2.28;1.30;;;22.70;39.90;;;;;;4987308;28;20042;-43
2022/05/02 03:19:44;;;;;;;3.58;1.67;;;22.60;39.70;;;;;;4987446;28;20032;-42
2022/05/02 03:22:10;;;;;;;3.25;1.45;;;22.60;39.80;;;;;;4986117;28;20023;-44
2022/05/02 03:24:35;;;;;;;2.60;1.63;;;22.70;39.90;;;;;;4986971;28;20030;-42
2022/05/02 03:27:01;;;;;;;3.30;1.38;;;22.70;39.90;;;;;;4987066;28;20418;-42
2022/05/02 03:29:27;;;;;;;2.55;1.55;;;22.70;39.90;;;;;;4981570;28;20167;-41
2022/05/02 03:31:52;;;;;;;2.67;1.50;;;22.70;39.90;;;;;;4986505;28;20080;-43
2022/05/02 03:34:18;;;;;;;2.45;1.30;;;22.60;39.80;;;;;;4987058;28;20086;-43
2022/05/02 03:36:44;;;;;;;2.78;1.85;;;22.60;39.80;;;;;;4986832;28;20030;-43
2022/05/02 03:39:10;;;;;;;2.50;1.48;;;22.60;39.80;;;;;;4986627;28;20030;-43
2022/05/02 03:41:35;;;;;;;2.13;1.35;;;22.70;39.90;;;;;;4985883;28;20060;-42
2022/05/02 03:44:01;;;;;;;2.33;1.38;;;22.60;39.80;;;;;;4986881;28;20030;-42
2022/05/02 03:46:27;;;;;;;2.50;1.52;;;22.60;39.80;;;;;;4986806;28;20084;-42
2022/05/02 03:48:53;;;;;;;2.25;1.42;;;22.60;39.80;;;;;;4986639;28;20426;-43
2022/05/02 03:51:19;;;;;;;3.13;1.63;;;22.60;39.80;;;;;;4986254;28;20033;-43
2022/05/02 03:53:44;;;;;;;2.50;1.55;;;22.60;39.80;;;;;;4986267;28;20065;-43
2022/05/02 03:56:10;;;;;;;2.55;1.60;;;22.60;39.80;;;;;;4986483;28;20104;-43
2022/05/02 03:58:36;;;;;;;2.20;1.30;;;22.60;39.80;;;;;;4986878;28;20029;-42
2022/05/02 04:01:02;;;;;;;3.08;1.98;;;22.60;39.80;;;;;;4986275;28;20035;-42
2022/05/02 04:03:28;;;;;;;2.35;1.45;;;22.60;39.70;;;;;;4986499;28;20096;-42
2022/05/02 04:05:54;;;;;;;3.17;1.80;;;22.60;39.80;;;;;;4986143;28;20054;-43
2022/05/02 04:08:20;;;;;;;2.58;1.60;;;22.60;39.80;;;;;;4985168;28;20038;-42
2022/05/02 04:10:45;;;;;;;2.70;1.50;;;22.60;39.80;;;;;;4985658;28;20034;-42
2022/05/02 04:13:11;;;;;;;2.65;1.35;;;22.60;39.90;;;;;;4986089;28;20627;-42
2022/05/02 04:15:37;;;;;;;2.90;1.80;;;22.60;40.00;;;;;;4986123;28;20052;-42
2022/05/02 04:18:03;;;;;;;3.40;1.95;;;22.60;40.00;;;;;;4985010;28;20030;-42
2022/05/02 04:20:28;;;;;;;2.78;1.60;;;22.60;40.10;;;;;;4985844;28;20673;-42
2022/05/02 04:22:54;;;;;;;2.72;1.80;;;22.60;40.10;;;;;;4985472;28;20120;-43
2022/05/02 04:25:20;;;;;;;2.40;1.42;;;22.60;40.10;;;;;;4985961;28;20494;-42
2022/05/02 04:27:45;;;;;;;2.30;1.40;;;22.60;40.10;;;;;;4985902;28;20602;-42
2022/05/02 04:30:12;;;;;;;2.17;1.38;;;22.70;40.20;;;;;;4985783;28;20482;-42
2022/05/02 04:32:38;;;;;;;2.03;1.30;;;22.70;40.10;;;;;;4985642;28;20041;-42
2022/05/02 04:35:05;;;;;;;3.03;1.40;;;22.70;40.00;;;;;;4986006;28;20030;-42
2022/05/02 04:37:31;;;;;;;2.97;1.40;;;22.80;39.90;;;;;;4985249;28;20046;-43
2022/05/02 04:39:57;;;;;;;3.05;1.75;;;22.80;39.90;;;;;;4984883;28;20041;-42
2022/05/02 04:42:23;;;;;;;2.33;1.40;;;22.90;39.90;;;;;;4985130;28;20399;-43
2022/05/02 04:44:48;;;;;;;2.50;1.58;;;22.90;39.90;;;;;;4985645;28;20113;-42
2022/05/02 04:47:14;;;;;;;2.80;1.65;;;23.00;39.70;;;;;;4985598;28;20478;-43
2022/05/02 04:49:40;;;;;;;2.08;1.33;;;23.00;39.70;;;;;;4985292;28;20030;-42
2022/05/02 04:52:06;;;;;;;2.75;1.55;;;23.00;39.60;;;;;;4985296;28;20026;-43
2022/05/02 04:54:32;;;;;;;2.55;1.52;;;23.10;39.60;;;;;;4986651;28;20057;-43
2022/05/02 04:56:57;;;;;;;2.03;1.23;;;23.20;39.60;;;;;;4985746;28;20025;-43
2022/05/02 04:59:23;;;;;;;3.00;1.80;;;23.20;39.50;;;;;;4985697;28;20529;-43
2022/05/02 05:01:49;;;;;;;2.60;1.52;;;23.20;39.40;;;;;;4985048;28;20406;-43
2022/05/02 05:04:15;;;;;;;2.38;1.65;;;23.30;39.50;;;;;;4985537;28;20454;-42
2022/05/02 05:06:41;;;;;;;2.30;1.40;;;23.30;39.40;;;;;;4984700;28;20026;-43
2022/05/02 05:09:07;;;;;;;2.50;1.48;;;23.30;39.40;;;;;;4983894;28;20030;-43
2022/05/02 05:11:41;;;;;;;2.85;1.50;;;23.30;39.30;;;;;;4984659;28;20525;-43
2022/05/02 05:16:57;;;;;;;2.83;1.58;;;23.40;39.30;;;;;;4984844;28;20026;-43
2022/05/02 05:19:34;;;;;;;2.60;1.67;;;23.40;39.20;;;;;;4984647;28;20034;-42
2022/05/02 05:22:22;;;;;;;2.70;1.65;;;23.40;39.10;;;;;;4983483;28;20401;-42
2022/05/02 05:25:12;;;;;;;2.75;1.60;;;23.40;39.10;;;;;;4984018;28;20062;-43
2022/05/02 05:27:56;;;;;;;3.00;1.77;;;23.50;39.10;;;;;;4984183;28;20022;-43
2022/05/02 05:30:24;;;;;;;2.60;1.65;;;23.50;39.00;;;;;;4984666;28;20042;-42
2022/05/02 05:33:08;;;;;;;2.90;1.70;;;23.50;39.00;;;;;;4984599;28;20106;-42
2022/05/02 05:35:44;;;;;;;2.90;1.85;;;23.50;39.00;;;;;;4984497;28;20266;-42
2022/05/02 05:38:23;;;;;;;3.20;1.83;;;23.50;39.00;;;;;;4984320;28;20034;-43
2022/05/02 05:41:02;;;;;;;2.72;1.65;;;23.50;38.90;;;;;;4982762;28;20080;-43
2022/05/02 05:44:20;;;;;;;2.28;1.40;;;23.50;39.00;;;;;;4983878;28;20070;-43
2022/05/02 05:46:54;;;;;;;2.55;1.63;;;23.50;39.00;;;;;;4941745;29;20053;-43
2022/05/02 05:49:30;;;;;;;3.00;1.60;;;23.50;39.00;;;;;;4941702;29;20042;-42
2022/05/02 05:52:02;;;;;;;2.72;1.58;;;23.50;38.90;;;;;;4971663;28;20041;-43
2022/05/02 05:54:41;;;;;;;2.40;1.58;;;23.50;38.90;;;;;;4987979;28;20026;-42
2022/05/02 05:57:19;;;;;;;2.90;1.75;;;23.50;39.00;;;;;;4986261;28;20026;-43
2022/05/02 06:00:03;;;;;;;2.50;1.70;;;23.50;38.90;;;;;;4986187;28;20610;-42
2022/05/02 06:02:51;;;;;;;2.60;1.70;;;23.50;39.00;;;;;;4968748;28;20180;-43
2022/05/02 06:05:17;;;;;;;2.25;1.50;;;23.50;38.90;;;;;;4968816;28;20034;-43
2022/05/02 06:07:46;;;;;;;2.67;1.67;;;23.40;38.80;;;;;;4982290;28;20037;-43
2022/05/02 06:10:14;;;;;;;2.13;1.33;;;23.50;38.90;;;;;;4988113;28;20045;-43
2022/05/02 06:12:42;;;;;;;2.25;1.50;;;23.50;38.90;;;;;;4988034;28;20030;-42
2022/05/02 06:20:43;;;;;;;2.13;1.50;;;23.50;39.00;;;;;;4987973;28;20097;-43
2022/05/02 06:23:12;;;;;;;2.88;1.65;;;23.40;38.90;;;;;;4987871;28;20158;-43
2022/05/02 06:25:38;;;;;;;1.90;1.23;;;23.40;38.90;;;;;;4988080;28;20042;-42
2022/05/02 06:28:05;;;;;;;2.58;1.60;;;23.40;38.90;;;;;;4987806;28;20030;-43
2022/05/02 06:30:33;;;;;;;1.92;1.20;;;23.40;38.90;;;;;;4987614;28;20054;-43
2022/05/02 06:33:03;;;;;;;3.08;1.77;;;23.40;39.00;;;;;;4988020;28;20110;-43
2022/05/02 06:35:35;;;;;;;2.60;1.60;;;23.40;38.90;;;;;;4987954;28;20030;-43
2022/05/02 06:38:19;;;;;;;2.72;1.50;;;23.40;38.90;;;;;;4986952;28;20045;-43
2022/05/02 06:40:54;;;;;;;2.53;1.48;;;23.40;38.90;;;;;;4987446;28;20034;-43
2022/05/02 06:43:36;;;;;;;2.47;1.50;;;23.40;38.90;;;;;;4987698;28;20326;-43
2022/05/02 06:46:31;;;;;;;2.40;1.50;;;23.40;38.90;;;;;;4988114;28;20457;-43
2022/05/02 06:49:04;;;;;;;2.50;1.40;;;23.40;38.90;;;;;;4979214;28;20077;-43
2022/05/02 06:51:36;;;;;;;;;;;23.40;38.90;;;;;;4987573;28;20401;-43
2022/05/02 06:54:20;;;;;;;2.38;1.30;;;23.40;38.90;;;;;;4987227;28;20277;-43
2022/05/02 06:56:53;;;;;;;2.28;1.42;;;23.40;38.90;;;;;;4987133;28;20026;-43
2022/05/02 06:59:52;;;;;;;2.67;1.30;;;23.40;38.90;;;;;;4986396;28;20532;-43
2022/05/02 07:02:35;;;;;;;2.55;1.45;;;23.40;38.90;;;;;;4985687;28;20085;-43
2022/05/02 07:05:05;;;;;;;;;;;23.40;38.90;;;;;;4986938;28;20046;-42
2022/05/02 07:07:43;;;;;;;2.78;1.65;;;23.40;38.90;;;;;;4986155;28;19925;-42
2022/05/02 07:10:49;;;;;;;2.30;1.50;;;23.30;39.00;;;;;;4965680;28;20045;-42
2022/05/02 07:13:33;;;;;;;3.08;2.10;;;23.30;39.00;;;;;;4945068;29;20638;-43
2022/05/02 07:16:21;;;;;;;1.98;1.20;;;23.30;39.00;;;;;;4965834;28;20031;-43
2022/05/02 07:19:22;;;;;;;2.60;1.60;;;23.30;39.00;;;;;;4966749;28;20105;-44
2022/05/02 07:22:09;;;;;;;1.95;1.27;;;23.30;39.00;;;;;;4966781;28;20093;-43
2022/05/02 07:24:46;;;;;;;2.90;1.65;;;23.30;39.00;;;;;;4983620;28;20042;-44
2022/05/02 07:27:30;;;;;;;2.60;1.38;;;23.40;39.00;;;;;;4986941;28;20101;-44
2022/05/02 07:29:58;;;;;;;2.15;1.40;;;23.30;39.10;;;;;;4987065;28;20410;-44
2022/05/02 07:32:25;;;;;;;3.05;1.42;;;23.30;39.00;;;;;;4986201;28;20030;-43
2022/05/02 07:34:52;;;;;;;2.28;1.35;;;23.30;39.00;;;;;;4986519;28;20128;-44
2022/05/02 07:37:22;;;;;;;2.85;1.58;;;23.30;39.00;;;;;;4986374;28;20049;-44
2022/05/02 07:39:49;;;;;;;2.67;1.50;;;23.30;39.10;;;;;;4986320;28;20449;-43
2022/05/02 07:42:16;;;;;;;2.28;1.60;;;23.30;39.00;;;;;;4986556;28;20030;-44
2022/05/02 07:44:44;;;;;;;2.25;1.35;;;23.30;39.00;;;;;;4986593;28;20113;-44
2022/05/02 07:47:12;;;;;;;1.77;1.20;;;23.30;39.00;;;;;;4985534;28;20022;-43
2022/05/02 07:49:43;;;;;;;1.88;1.10;;;23.30;39.70;;;;;;4986217;28;20038;-43
2022/05/02 07:52:15;;;;;;;2.20;1.40;;;23.30;39.00;;;;;;4986175;28;20101;-44
2022/05/02 07:54:45;;;;;;;2.58;1.60;;;23.30;39.70;;;;;;4986178;28;20183;-44
2022/05/02 07:57:14;;;;;;;2.70;1.40;;;23.30;39.10;;;;;;4986181;28;20106;-43
2022/05/02 07:59:42;;;;;;;3.28;1.73;;;23.30;39.10;;;;;;4986214;28;20034;-44
2022/05/02 08:02:09;;;;;;;2.17;1.20;;;23.30;39.10;;;;;;4985341;28;20034;-44
2022/05/02 08:04:40;;;;;;;2.17;1.48;;;23.30;39.10;;;;;;4985341;28;20566;-44
2022/05/02 08:07:11;;;;;;;3.95;1.60;;;23.30;39.10;;;;;;4985557;28;20022;-44
2022/05/02 08:09:46;;;;;;;3.00;1.27;;;23.30;39.10;;;;;;4985377;28;20046;-44
2022/05/02 08:12:30;;;;;;;2.53;1.42;;;23.30;39.40;;;;;;4984687;28;20525;-44
2022/05/02 08:15:13;;;;;;;2.35;1.38;;;23.30;39.10;;;;;;4985184;28;20061;-44
2022/05/02 08:18:08;;;;;;;1.70;1.17;;;23.30;39.10;;;;;;4985789;28;20034;-44
2022/05/02 08:20:59;;;;;;;2.35;1.48;;;23.30;39.10;;;;;;4984504;28;20030;-44
2022/05/02 08:27:16;;;;;;;2.60;1.60;;;23.30;39.10;;;;;;4985435;28;20554;-45
2022/05/02 08:30:08;;;;;;;2.20;1.30;;;23.30;39.10;;;;;;4985170;28;20106;-45
2022/05/02 08:33:01;;;;;;;2.42;1.40;;;23.30;39.10;;;;;;4985400;28;20029;-44
2022/05/02 08:35:43;;;;;;;2.60;1.48;;;23.30;39.10;;;;;;4984171;28;20519;-44
2022/05/02 08:38:43;;;;;;;2.60;1.30;;;23.20;39.00;;;;;;4984404;28;20085;-44
2022/05/02 08:41:26;;;;;;;2.15;1.40;;;23.20;39.00;;;;;;4984747;28;20037;-44
2022/05/02 08:43:56;;;;;;;2.35;1.40;;;23.20;39.10;;;;;;4984900;28;20030;-43
2022/05/02 08:46:54;;;;;;;2.10;1.10;;;23.20;39.00;;;;;;4984885;28;20344;-43
2022/05/02 08:49:38;;;;;;;2.10;1.30;;;23.20;39.10;;;;;;4948198;28;20233;-44
2022/05/02 08:52:41;;;;;;;2.25;1.35;;;23.20;39.10;;;;;;4985268;28;20022;-44
2022/05/02 08:55:32;;;;;;;2.60;1.50;;;23.30;39.20;;;;;;4985309;28;20038;-43
2022/05/02 08:58:42;;;;;;;2.25;1.38;;;23.20;39.10;;;;;;4984569;28;20505;-44
2022/05/02 09:01:33;;;;;;;2.65;1.52;;;23.20;39.10;;;;;;4940741;28;20069;-42
2022/05/02 09:04:36;;;;;;;2.83;1.65;;;23.20;39.10;;;;;;4984252;28;20018;-44
2022/05/02 09:07:08;;;;;;;;;;;23.20;39.10;;;;;;4985762;28;20105;-44
2022/05/02 09:09:48;;;;;;;2.75;1.10;;;23.20;39.00;;;;;;4985008;28;19914;-44
2022/05/02 09:12:14;;;;;;;3.00;1.75;;;23.20;39.10;;;;;;4984818;28;20479;-44
2022/05/02 09:15:17;;;;;;;2.40;1.50;;;23.20;39.10;;;;;;4985017;28;20038;-43
2022/05/02 09:17:55;;;;;;;3.10;1.77;;;23.20;39.10;;;;;;4967365;28;20666;-44
2022/05/02 09:20:24;;;;;;;1.92;1.40;;;23.20;39.10;;;;;;4984330;28;20030;-44
2022/05/02 09:23:22;;;;;;;2.55;1.48;;;23.20;39.10;;;;;;4984847;28;20183;-44
2022/05/02 09:26:06;;;;;;;2.30;1.45;;;23.20;39.20;;;;;;4984775;28;20061;-43
2022/05/02 09:28:54;;;;;;;3.13;1.85;;;23.20;39.20;;;;;;4988552;28;20026;-42
2022/05/02 09:31:23;;;;;;;2.55;1.40;;;23.20;39.20;;;;;;4988286;28;20109;-42
2022/05/02 09:34:13;;;;;;;2.40;1.30;;;23.20;39.20;;;;;;4988494;28;20030;-42
2022/05/02 09:37:03;;;;;;;2.13;1.15;;;23.20;39.20;;;;;;4988187;28;20034;-42
2022/05/02 09:40:07;;;;;;;2.00;1.20;;;23.20;39.20;;;;;;4988896;28;20034;-42
2022/05/02 09:43:11;;;;;;;1.92;1.17;;;23.20;39.20;;;;;;4983691;28;20039;-42
2022/05/02 09:52:12;;;;;;;2.40;1.50;;;23.20;39.30;;;;;;4987148;28;20122;-42
2022/05/02 09:57:59;;;;;;;2.50;1.30;;;23.20;39.30;;;;;;4955505;28;20097;-42
2022/05/02 10:01:07;;;;;;;2.72;1.67;;;23.20;39.20;;;;;;4987225;28;20034;-42
2022/05/02 10:03:38;;;;;;;2.53;1.58;;;23.30;39.30;;;;;;4959093;28;20162;-42
2022/05/02 10:06:08;;;;;;;2.45;1.25;;;23.20;39.20;;;;;;4987181;28;20057;-42
2022/05/02 10:09:00;;;;;;;2.38;1.35;;;23.30;39.30;;;;;;4986910;28;20616;-42
2022/05/02 10:11:44;;;;;;;2.25;1.25;;;23.30;39.30;;;;;;4986907;28;20513;-43
2022/05/02 10:14:19;;;;;;;1.88;1.17;;;23.30;39.30;;;;;;4987295;28;20038;-42
2022/05/02 10:16:54;;;;;;;2.20;1.30;;;23.30;39.30;;;;;;4987605;28;20025;-43
2022/05/02 10:19:53;;;;;;;2.35;1.40;;;23.40;39.90;;;;;;4987917;28;20591;-44
2022/05/02 10:22:40;;;;;;;2.65;1.67;;;23.40;39.20;;;;;;4987158;28;20069;-44
2022/05/02 10:25:11;;;;;;;2.88;1.55;;;23.40;39.30;;;;;;4987981;28;20106;-44
2022/05/02 10:27:45;;;;;;;2.35;1.63;;;23.40;39.80;;;;;;4987538;28;20565;-45
2022/05/02 10:30:12;;;;;;;2.42;1.27;;;23.40;39.20;;;;;;4988007;28;20522;-43
2022/05/02 10:32:56;;;;;;;2.40;1.40;;;23.40;39.20;;;;;;4987065;28;20031;-42
2022/05/02 10:35:25;;;;;;;2.03;1.30;;;23.50;39.20;;;;;;4987160;28;20053;-43
2022/05/02 10:38:02;;;;;;;2.60;1.50;;;23.50;39.20;;;;;;4984737;28;20031;-42
2022/05/02 10:40:44;;;;;;;2.13;1.25;;;23.50;39.20;;;;;;4987628;28;20088;-42
2022/05/02 10:43:16;;;;;;;2.58;1.55;;;23.50;39.20;;;;;;4986947;28;20033;-42
2022/05/02 10:45:43;;;;;;;2.47;1.40;;;23.50;39.20;;;;;;4987100;28;20089;-43
2022/05/02 10:48:22;;;;;;;2.40;1.20;;;23.50;39.10;;;;;;4986371;28;20073;-43
2022/05/02 10:51:11;;;;;;;2.47;1.50;;;23.50;39.20;;;;;;4987374;28;20041;-42
2022/05/02 10:53:57;;;;;;;2.35;1.40;;;23.50;39.20;;;;;;4985198;28;20049;-43
2022/05/02 10:56:43;;;;;;;2.90;1.50;;;23.50;39.20;;;;;;4984359;28;20114;-42
2022/05/02 10:59:15;;;;;;;2.03;1.30;;;23.50;39.20;;;;;;4984429;28;20034;-42
2022/05/02 11:01:46;;;;;;;3.20;1.42;;;23.50;39.20;;;;;;4984705;28;20062;-43
2022/05/02 11:04:25;;;;;;;2.20;1.30;;;23.50;39.20;;;;;;4977486;28;20022;-43
2022/05/02 11:07:22;;;;;;;2.30;1.30;;;23.50;39.20;;;;;;4982786;28;20030;-43
2022/05/02 11:10:07;;;;;;;2.45;1.35;;;23.50;39.30;;;;;;4985087;28;20257;-42
2022/05/02 11:12:40;;;;;;;2.40;1.45;;;23.50;39.40;;;;;;4984220;28;20034;-42
2022/05/02 11:15:10;;;;;;;3.60;1.50;;;23.50;39.60;;;;;;4984375;28;20177;-43
2022/05/02 11:17:53;;;;;;;3.40;1.70;;;23.60;39.60;;;;;;4983748;28;20034;-42
2022/05/02 11:20:45;;;;;;;3.40;1.70;;;23.50;39.60;;;;;;4982408;28;20022;-42
2022/05/02 11:23:35;;;;;;;3.30;1.73;;;23.50;39.60;;;;;;4979043;28;20032;-43
2022/05/02 11:26:04;;;;;;;3.53;1.83;;;23.50;39.60;;;;;;4985422;28;20382;-42
2022/05/02 11:28:59;;;;;;;2.90;1.50;;;23.60;39.60;;;;;;4986148;28;20113;-42
2022/05/02 11:31:33;;;;;;;3.33;1.77;;;23.60;39.60;;;;;;4986148;28;20030;-42
2022/05/02 11:34:33;;;;;;;3.60;1.90;;;23.60;39.60;;;;;;4985462;28;20037;-43
2022/05/02 11:36:59;;;;;;;2.92;1.80;;;23.60;39.70;;;;;;4985452;28;20310;-43
2022/05/02 11:39:48;;;;;;;4.10;2.40;;;23.60;39.70;;;;;;4985190;28;20038;-43
2022/05/02 11:42:18;;;;;;;3.60;2.03;;;23.60;39.70;;;;;;4985979;28;20498;-44
2022/05/02 11:44:55;;;;;;;3.00;1.52;;;23.60;39.70;;;;;;4986069;28;20030;-44
2022/05/02 11:47:40;;;;;;;2.80;1.50;;;23.60;39.70;;;;;;4986633;28;20037;-44
2022/05/02 11:50:07;;;;;;;4.93;1.67;;;23.60;39.60;;;;;;4985796;28;20144;-44
2022/05/02 11:52:36;;;;;;;3.13;1.58;;;23.60;39.50;;;;;;4986322;28;20046;-44
2022/05/02 11:55:04;;;;;;;3.50;1.75;;;23.60;39.50;;;;;;4985327;28;20042;-44
2022/05/02 11:57:44;;;;;;;4.07;1.90;;;23.70;39.60;;;;;;4985299;28;20122;-45
2022/05/02 12:00:16;;;;;;;3.15;1.58;;;23.70;39.70;;;;;;4985792;28;20030;-45
2022/05/02 12:02:53;;;;;;;3.67;1.92;;;23.70;39.70;;;;;;4986138;28;20042;-44
2022/05/02 12:05:40;;;;;;;3.70;1.98;;;23.70;39.70;;;;;;4986420;28;20106;-44
2022/05/02 12:08:09;;;;;;;5.72;2.20;;;23.70;39.70;;;;;;4985433;28;20494;-44
2022/05/02 12:10:39;;;;;;;3.60;1.75;;;23.70;39.80;;;;;;4985453;28;20042;-44
2022/05/02 12:13:07;;;;;;;4.05;1.77;;;23.70;39.70;;;;;;4985646;28;20030;-44
2022/05/02 12:15:34;;;;;;;3.03;1.50;;;23.70;39.70;;;;;;4985989;28;20042;-44
2022/05/02 12:18:04;;;;;;;3.97;2.00;;;23.80;39.70;;;;;;4985862;28;20034;-43
2022/05/02 12:20:31;;;;;;;3.42;2.00;;;23.80;39.80;;;;;;4983728;28;20018;-45
2022/05/02 12:23:18;;;;;;;3.83;1.80;;;23.80;39.80;;;;;;4985381;28;20530;-44
2022/05/02 12:26:12;;;;;;;3.55;1.60;;;23.80;39.80;;;;;;4966365;28;20085;-43
2022/05/02 12:28:38;;;;;;;3.10;1.83;;;23.80;39.70;;;;;;4966094;28;20093;-44
2022/05/02 12:31:08;;;;;;;2.50;1.27;;;23.80;39.70;;;;;;4966336;28;20481;-44
2022/05/02 12:33:48;;;;;;;2.80;1.45;;;23.80;39.60;;;;;;4966218;28;20048;-44
2022/05/02 12:36:18;;;;;;;3.10;1.50;;;23.80;39.60;;;;;;4964839;28;20031;-44
2022/05/02 12:39:01;;;;;;;3.13;1.70;;;23.90;39.60;;;;;;4970176;28;20057;-43
2022/05/02 12:41:29;;;;;;;3.45;1.63;;;23.90;39.60;;;;;;4984928;28;20071;-44
2022/05/02 12:44:08;;;;;;;4.20;1.90;;;23.90;39.60;;;;;;4985046;28;20039;-45
2022/05/02 12:46:39;;;;;;;3.08;1.45;;;23.90;39.50;;;;;;4985691;28;20041;-45
2022/05/02 12:49:06;;;;;;;2.67;1.50;;;23.90;39.50;;;;;;4985762;28;20026;-44
2022/05/02 12:51:32;;;;;;;3.65;1.30;;;23.90;39.40;;;;;;4985258;28;20089;-44
2022/05/02 12:54:13;;;;;;;2.75;1.65;;;23.90;40.00;;;;;;4983938;28;20050;-45
2022/05/02 13:03:00;;;;;;;3.28;1.77;;;24.00;39.30;;;;;;4988332;28;20461;-43
2022/05/02 13:05:30;;;;;;;3.35;1.65;;;23.90;39.30;;;;;;4989266;28;20035;-42
2022/05/02 13:07:56;;;;;;;3.45;1.98;;;24.00;39.20;;;;;;4988610;28;20042;-43
2022/05/02 13:10:29;;;;;;;3.40;1.98;;;24.00;39.20;;;;;;4988862;28;20501;-42
2022/05/02 13:13:09;;;;;;;3.53;1.70;;;24.00;39.20;;;;;;4989067;28;20042;-43
2022/05/02 13:15:44;;;;;;;3.70;1.98;;;24.00;39.20;;;;;;4989384;28;20015;-43
2022/05/02 13:18:15;;;;;;;3.85;1.90;;;24.00;39.20;;;;;;4989090;28;20033;-43
2022/05/02 13:20:48;;;;;;;4.03;1.90;;;24.00;39.20;;;;;;4988872;28;20038;-43
2022/05/02 13:23:14;;;;;;;3.22;1.73;;;24.00;39.20;;;;;;4988974;28;20034;-43
2022/05/02 13:26:07;;;;;;;3.20;1.70;;;24.00;39.20;;;;;;4969601;28;20039;-42
2022/05/02 13:28:57;;;;;;;4.10;1.70;;;24.00;39.20;;;;;;4969501;28;20067;-43
2022/05/02 13:31:48;;;;;;;2.78;1.63;;;24.10;39.20;;;;;;4969323;28;20038;-43
2022/05/02 13:34:26;;;;;;;3.00;1.48;;;24.10;39.20;;;;;;4969707;28;20161;-43
2022/05/02 13:37:03;;;;;;;2.88;1.50;;;24.10;39.20;;;;;;4973692;28;20027;-43
2022/05/02 13:39:54;;;;;;;3.35;1.40;;;24.10;39.10;;;;;;4988822;28;20038;-43
2022/05/02 13:42:49;;;;;;;2.95;1.60;;;24.10;39.10;;;;;;4982708;28;20125;-42
2022/05/02 13:45:22;;;;;;;2.67;1.35;;;24.10;39.00;;;;;;4983573;28;20644;-43
2022/05/02 13:48:31;;;;;;;2.42;1.35;;;24.10;39.00;;;;;;4988469;28;20058;-43
2022/05/02 13:51:17;;;;;;;2.92;1.45;;;24.10;39.00;;;;;;4974552;28;20038;-42
2022/05/02 13:54:03;;;;;;;3.38;1.95;;;24.10;39.00;;;;;;4988308;28;20050;-43
2022/05/02 13:56:36;;;;;;;3.03;1.50;;;24.10;39.00;;;;;;4988475;28;20034;-43